Time;durP1;ratioP1;P1;durP2;ratioP2;P2;SDS_P1;SDS_P2;PMS_P1;PMS_P2;Temp;Humidity;BMP_temperature;BMP_pressure;BME280_temperature;BME280_humidity;BME280_pressure;Samples;Min_cycle;Max_cycle;Signal;HPM_P1;HPM_P2
2022/10/27 00:02:10;;;;;;;17.63;5.60;;;;;;;;;;4999229;28;20443;-76
2022/10/27 00:04:36;;;;;;;17.40;4.50;;;;;;;;;;5009051;28;20112;-76
2022/10/27 00:07:02;;;;;;;19.27;4.93;;;;;;;;;;5000252;28;20046;-76
2022/10/27 00:09:28;;;;;;;15.07;5.72;;;;;;;;;;5008680;28;20042;-76
2022/10/27 00:11:55;;;;;;;20.73;6.78;;;;;;;;;;5010082;28;20029;-75
2022/10/27 00:14:21;;;;;;;21.48;6.53;;;;;;;;;;5013109;28;20029;-76
2022/10/27 00:16:54;;;;;;;29.73;6.63;;;;;;;;;;5012140;28;20050;-76
2022/10/27 00:19:21;;;;;;;23.70;7.90;;;;;;;;;;5002843;28;20034;-76
2022/10/27 00:21:47;;;;;;;18.13;5.55;;;;;;;;;;5002539;28;20728;-76
2022/10/27 00:24:13;;;;;;;21.67;4.68;;;;;;;;;;5011953;28;20101;-76
2022/10/27 00:26:39;;;;;;;15.90;4.55;;;;;;;;;;5012861;28;20042;-76
2022/10/27 00:29:05;;;;;;;17.98;5.10;;;;;;;;;;5011900;28;20041;-76
2022/10/27 00:31:31;;;;;;;16.48;4.80;;;;;;;;;;5012529;28;20806;-76
2022/10/27 00:33:56;;;;;;;17.02;4.50;;;;;;;;;;5018111;28;20072;-76
2022/10/27 00:36:23;;;;;;;19.48;4.90;;;;;;;;;;5012257;28;20034;-76
2022/10/27 00:38:52;;;;;;;15.95;5.05;;;;;;;;;;5009093;28;20029;-76
2022/10/27 00:41:27;;;;;;;16.52;4.45;;;;;;;;;;5010053;28;20034;-76
2022/10/27 00:43:54;;;;;;;15.55;6.00;;;;;;;;;;5004453;28;20084;-75
2022/10/27 00:46:52;;;;;;;16.83;5.03;;;;;;;;;;5009042;28;20038;-76
2022/10/27 00:49:21;;;;;;;18.60;4.57;;;;;;;;;;4965527;28;20133;-76
2022/10/27 00:51:50;;;;;;;17.23;4.68;;;;;;;;;;5012074;28;20034;-76
2022/10/27 00:54:17;;;;;;;11.90;3.90;;;;;;;;;;5011177;28;20038;-76
2022/10/27 00:56:44;;;;;;;17.60;5.43;;;;;;;;;;5011935;28;20861;-76
2022/10/27 00:59:10;;;;;;;23.35;4.70;;;;;;;;;;5007506;28;20108;-76
2022/10/27 01:01:36;;;;;;;12.00;4.65;;;;;;;;;;5008040;28;20117;-76
2022/10/27 01:04:03;;;;;;;17.55;4.85;;;;;;;;;;5009523;28;20042;-76
2022/10/27 01:06:29;;;;;;;14.68;4.07;;;;;;;;;;5011769;28;20034;-76
2022/10/27 01:08:56;;;;;;;19.65;4.32;;;;;;;;;;5004580;28;20033;-76
2022/10/27 01:11:22;;;;;;;12.82;4.03;;;;;;;;;;5007268;28;20040;-76
2022/10/27 01:13:48;;;;;;;12.13;3.53;;;;;;;;;;5002216;28;20026;-75
2022/10/27 01:16:17;;;;;;;12.88;3.33;;;;;;;;;;5012208;28;20034;-76
2022/10/27 01:18:46;;;;;;;11.27;3.72;;;;;;;;;;5010331;28;20484;-76
2022/10/27 01:21:18;;;;;;;14.07;3.63;;;;;;;;;;5002471;28;20031;-76
2022/10/27 01:23:44;;;;;;;10.35;3.28;;;;;;;;;;5004466;28;20097;-76
2022/10/27 01:26:16;;;;;;;15.15;3.72;;;;;;;;;;5010840;28;20591;-76
2022/10/27 01:29:12;;;;;;;12.18;4.10;;;;;;;;;;5007269;28;20026;-76
2022/10/27 01:31:42;;;;;;;14.00;3.47;;;;;;;;;;4965849;28;20467;-76
2022/10/27 01:34:16;;;;;;;9.95;3.17;;;;;;;;;;5007576;28;20780;-76
2022/10/27 01:36:45;;;;;;;11.50;3.90;;;;;;;;;;5009887;28;20386;-75
2022/10/27 01:39:14;;;;;;;13.80;3.55;;;;;;;;;;5010503;28;20038;-75
2022/10/27 01:41:42;;;;;;;15.70;4.18;;;;;;;;;;5001278;28;20576;-76
2022/10/27 01:44:12;;;;;;;17.75;4.47;;;;;;;;;;5001055;28;20117;-76
2022/10/27 01:46:38;;;;;;;22.10;4.13;;;;;;;;;;5011326;28;20083;-76
2022/10/27 01:49:05;;;;;;;16.67;3.88;;;;;;;;;;5010597;28;20125;-76
2022/10/27 01:51:31;;;;;;;11.05;3.22;;;;;;;;;;5010972;28;20041;-76
2022/10/27 01:53:57;;;;;;;15.93;3.20;;;;;;;;;;5005805;28;20030;-76
2022/10/27 01:56:23;;;;;;;13.57;3.17;;;;;;;;;;5006006;28;20045;-76
2022/10/27 01:58:49;;;;;;;12.55;3.58;;;;;;;;;;5010328;28;20549;-76
2022/10/27 02:01:32;;;;;;;12.88;2.88;;;;;;;;;;5010893;28;20109;-76
2022/10/27 02:04:07;;;;;;;13.90;2.75;;;;;;;;;;5003616;28;20025;-76
2022/10/27 02:06:33;;;;;;;15.40;3.20;;;;;;;;;;5003621;28;20033;-75
2022/10/27 02:09:18;;;;;;;14.18;3.28;;;;;;;;;;5003004;28;20108;-76
2022/10/27 02:11:46;;;;;;;11.65;3.47;;;;;;;;;;5005669;28;20056;-76
2022/10/27 02:14:12;;;;;;;10.95;3.28;;;;;;;;;;5000925;28;20061;-76
2022/10/27 02:16:41;;;;;;;13.82;3.83;;;;;;;;;;5010559;28;20400;-76
2022/10/27 02:19:10;;;;;;;12.43;4.55;;;;;;;;;;5010344;28;20083;-76
2022/10/27 02:21:37;;;;;;;17.95;3.70;;;;;;;;;;5008890;28;20539;-76
2022/10/27 02:24:04;;;;;;;16.25;3.53;;;;;;;;;;5009974;28;20045;-75
2022/10/27 02:26:45;;;;;;;17.45;3.78;;;;;;;;;;5009961;28;20473;-76
2022/10/27 02:29:17;;;;;;;10.45;3.25;;;;;;;;;;5002119;28;20042;-75
2022/10/27 02:31:43;;;;;;;;;;;;;;;;;;5010769;28;20478;-76
2022/10/27 02:34:10;;;;;;;11.93;3.05;;;;;;;;;;5006653;28;19926;-76
2022/10/27 02:36:36;;;;;;;8.60;2.85;;;;;;;;;;5009734;28;20413;-76
2022/10/27 02:39:02;;;;;;;14.20;2.90;;;;;;;;;;5009443;28;20064;-76
2022/10/27 02:41:28;;;;;;;15.23;3.35;;;;;;;;;;4999867;28;20485;-76
2022/10/27 02:43:54;;;;;;;15.68;3.30;;;;;;;;;;5009379;28;20042;-76
2022/10/27 02:46:20;;;;;;;15.18;2.70;;;;;;;;;;5007985;28;20864;-76
2022/10/27 02:48:46;;;;;;;13.73;4.45;;;;;;;;;;5001544;28;20044;-75
2022/10/27 02:51:12;;;;;;;12.27;3.33;;;;;;;;;;5003031;28;20405;-76
2022/10/27 02:53:37;;;;;;;13.05;3.33;;;;;;;;;;5009423;28;20034;-76
2022/10/27 02:56:04;;;;;;;13.68;3.17;;;;;;;;;;5002839;28;20109;-76
2022/10/27 02:58:29;;;;;;;13.25;2.78;;;;;;;;;;5005374;28;20049;-76
2022/10/27 03:00:56;;;;;;;12.27;3.35;;;;;;;;;;5010563;28;20072;-76
2022/10/27 03:03:22;;;;;;;13.07;3.38;;;;;;;;;;5009173;28;20084;-76
2022/10/27 03:05:49;;;;;;;12.20;3.15;;;;;;;;;;5000697;28;20045;-76
2022/10/27 03:08:15;;;;;;;10.90;3.30;;;;;;;;;;5003301;28;20029;-76
2022/10/27 03:10:41;;;;;;;9.38;3.45;;;;;;;;;;5004930;28;20492;-75
2022/10/27 03:13:07;;;;;;;14.65;3.15;;;;;;;;;;5005181;28;20881;-75
2022/10/27 03:15:33;;;;;;;12.55;3.00;;;;;;;;;;5005073;28;20040;-76
2022/10/27 03:17:59;;;;;;;11.30;3.08;;;;;;;;;;4999704;28;20052;-76
2022/10/27 03:20:25;;;;;;;16.40;3.40;;;;;;;;;;5002896;28;20061;-76
2022/10/27 03:22:51;;;;;;;14.38;3.55;;;;;;;;;;4994811;28;20076;-76
2022/10/27 03:25:17;;;;;;;15.98;3.35;;;;;;;;;;5008968;28;20454;-76
2022/10/27 03:27:44;;;;;;;14.57;3.83;;;;;;;;;;5007039;28;20053;-76
2022/10/27 03:30:11;;;;;;;12.10;3.72;;;;;;;;;;5005051;28;20030;-76
2022/10/27 03:32:37;;;;;;;17.20;3.50;;;;;;;;;;5000448;28;20038;-76
2022/10/27 03:35:03;;;;;;;18.48;3.15;;;;;;;;;;5006057;28;20082;-76
2022/10/27 03:37:29;;;;;;;15.48;3.47;;;;;;;;;;5007064;28;20034;-75
2022/10/27 03:39:55;;;;;;;14.52;3.40;;;;;;;;;;4996610;28;20088;-76
2022/10/27 03:42:21;;;;;;;20.33;2.80;;;;;;;;;;4996168;28;20076;-76
2022/10/27 03:44:47;;;;;;;10.10;2.78;;;;;;;;;;4999274;28;20660;-76
2022/10/27 03:47:13;;;;;;;13.77;3.50;;;;;;;;;;5013226;28;20064;-76
2022/10/27 03:49:39;;;;;;;17.80;3.80;;;;;;;;;;5009430;28;20042;-76
2022/10/27 03:52:05;;;;;;;17.23;3.80;;;;;;;;;;5012749;28;20030;-75
2022/10/27 03:54:32;;;;;;;14.88;3.92;;;;;;;;;;5010276;28;20696;-75
2022/10/27 03:56:58;;;;;;;16.55;4.28;;;;;;;;;;5015582;28;20029;-76
2022/10/27 03:59:24;;;;;;;19.23;5.13;;;;;;;;;;5011355;28;20046;-76
2022/10/27 04:01:50;;;;;;;15.70;5.13;;;;;;;;;;4996209;28;20097;-76
2022/10/27 04:04:16;;;;;;;17.15;5.15;;;;;;;;;;5012229;28;20042;-76
2022/10/27 04:06:42;;;;;;;20.55;5.55;;;;;;;;;;5015800;28;20034;-76
2022/10/27 04:09:08;;;;;;;15.50;5.07;;;;;;;;;;5009771;28;20040;-75
2022/10/27 04:11:34;;;;;;;15.40;5.45;;;;;;;;;;5015833;28;20093;-76
2022/10/27 04:14:00;;;;;;;18.83;4.90;;;;;;;;;;5014934;28;20103;-76
2022/10/27 04:16:26;;;;;;;16.63;4.40;;;;;;;;;;4996333;28;20694;-76
2022/10/27 04:18:52;;;;;;;14.20;4.00;;;;;;;;;;5008034;28;20065;-76
2022/10/27 04:21:18;;;;;;;16.08;4.43;;;;;;;;;;5009089;28;20038;-76
2022/10/27 04:23:45;;;;;;;14.65;4.57;;;;;;;;;;5012255;28;20045;-75
2022/10/27 04:26:11;;;;;;;18.30;4.68;;;;;;;;;;5011572;28;20062;-76
2022/10/27 04:28:37;;;;;;;17.63;4.35;;;;;;;;;;5006940;28;20068;-76
2022/10/27 04:31:03;;;;;;;15.40;4.70;;;;;;;;;;5002933;28;20085;-76
2022/10/27 04:33:29;;;;;;;11.90;4.75;;;;;;;;;;5005918;28;20701;-76
2022/10/27 04:35:55;;;;;;;18.52;4.28;;;;;;;;;;5014503;28;20077;-76
2022/10/27 04:38:21;;;;;;;14.70;4.15;;;;;;;;;;5010811;28;20060;-76
2022/10/27 04:40:47;;;;;;;22.77;7.43;;;;;;;;;;5013401;28;20074;-76
2022/10/27 04:43:13;;;;;;;18.35;9.60;;;;;;;;;;5010486;28;20101;-75
2022/10/27 04:45:40;;;;;;;25.45;10.27;;;;;;;;;;5006802;28;20053;-76
2022/10/27 04:48:06;;;;;;;28.45;9.52;;;;;;;;;;5008470;28;20041;-76
2022/10/27 04:50:32;;;;;;;22.60;7.43;;;;;;;;;;5005004;28;20092;-76
2022/10/27 04:53:00;;;;;;;19.88;7.03;;;;;;;;;;5009126;28;20060;-75
2022/10/27 04:55:26;;;;;;;19.77;6.65;;;;;;;;;;5014385;28;20061;-76
2022/10/27 04:57:52;;;;;;;32.20;7.15;;;;;;;;;;5004127;28;20563;-76
2022/10/27 05:00:18;;;;;;;19.25;6.68;;;;;;;;;;5009905;28;20701;-76
2022/10/27 05:02:44;;;;;;;21.92;6.30;;;;;;;;;;5011814;28;20034;-76
2022/10/27 05:05:11;;;;;;;24.25;5.75;;;;;;;;;;5003501;28;20042;-76
2022/10/27 05:07:37;;;;;;;27.10;5.85;;;;;;;;;;5006151;28;20041;-76
2022/10/27 05:10:03;;;;;;;23.13;6.35;;;;;;;;;;5009721;28;20401;-75
2022/10/27 05:12:29;;;;;;;26.83;7.43;;;;;;;;;;5006622;28;20049;-76
2022/10/27 05:14:55;;;;;;;19.65;6.43;;;;;;;;;;5005855;28;20039;-76
2022/10/27 05:17:21;;;;;;;15.77;5.32;;;;;;;;;;5007030;28;20037;-76
2022/10/27 05:19:47;;;;;;;25.15;6.47;;;;;;;;;;5006818;28;20042;-76
2022/10/27 05:22:13;;;;;;;18.83;6.22;;;;;;;;;;5006425;28;20110;-76
2022/10/27 05:24:39;;;;;;;30.58;7.70;;;;;;;;;;5011548;28;20125;-76
2022/10/27 05:27:05;;;;;;;25.25;7.25;;;;;;;;;;5006002;28;20473;-76
2022/10/27 05:29:31;;;;;;;20.25;6.40;;;;;;;;;;5011455;28;20034;-76
2022/10/27 05:31:57;;;;;;;24.02;7.55;;;;;;;;;;5006248;28;20069;-76
2022/10/27 05:34:23;;;;;;;24.85;8.48;;;;;;;;;;5009198;28;20057;-75
2022/10/27 05:36:50;;;;;;;33.17;9.07;;;;;;;;;;5011318;28;20030;-76
2022/10/27 05:39:16;;;;;;;21.25;7.20;;;;;;;;;;5008481;28;20046;-76
2022/10/27 05:41:42;;;;;;;27.35;7.07;;;;;;;;;;5011184;28;20053;-76
2022/10/27 05:44:08;;;;;;;23.27;7.40;;;;;;;;;;5009776;28;20381;-76
2022/10/27 05:46:34;;;;;;;26.15;7.53;;;;;;;;;;5010958;28;20080;-76
2022/10/27 05:49:00;;;;;;;27.58;7.55;;;;;;;;;;4999524;28;20054;-76
2022/10/27 05:51:26;;;;;;;21.25;6.07;;;;;;;;;;5007555;28;20030;-76
2022/10/27 05:53:52;;;;;;;23.15;5.82;;;;;;;;;;5010370;28;20025;-76
2022/10/27 05:56:18;;;;;;;22.80;7.18;;;;;;;;;;5009199;28;20029;-76
2022/10/27 05:58:44;;;;;;;24.27;6.63;;;;;;;;;;5009775;28;20052;-76
2022/10/27 06:01:10;;;;;;;30.70;8.27;;;;;;;;;;5000097;28;20033;-76
2022/10/27 06:03:36;;;;;;;32.97;9.02;;;;;;;;;;5009457;28;20040;-76
2022/10/27 06:06:05;;;;;;;32.15;9.88;;;;;;;;;;5009221;28;20048;-76
2022/10/27 06:08:31;;;;;;;34.10;9.18;;;;;;;;;;5009765;28;20076;-76
2022/10/27 06:10:57;;;;;;;28.77;8.75;;;;;;;;;;5010017;28;20053;-76
2022/10/27 06:13:23;;;;;;;28.13;8.73;;;;;;;;;;4994090;28;20026;-76
2022/10/27 06:15:49;;;;;;;29.17;8.20;;;;;;;;;;5010422;28;20794;-76
2022/10/27 06:18:15;;;;;;;31.60;7.60;;;;;;;;;;5010650;28;20029;-76
2022/10/27 06:20:42;;;;;;;22.10;7.22;;;;;;;;;;5012126;28;20044;-76
2022/10/27 06:23:08;;;;;;;29.00;8.40;;;;;;;;;;5003640;28;20030;-76
2022/10/27 06:25:34;;;;;;;31.50;7.63;;;;;;;;;;5007467;28;20563;-76
2022/10/27 06:28:00;;;;;;;41.55;8.77;;;;;;;;;;5010857;28;20045;-76
2022/10/27 06:30:26;;;;;;;37.28;8.77;;;;;;;;;;5012632;28;20044;-76
2022/10/27 06:32:52;;;;;;;28.88;7.57;;;;;;;;;;5010259;28;20520;-76
2022/10/27 06:35:18;;;;;;;21.50;8.25;;;;;;;;;;5004156;28;20140;-76
2022/10/27 06:37:45;;;;;;;25.08;8.10;;;;;;;;;;5014272;28;20385;-75
2022/10/27 06:40:12;;;;;;;20.92;6.28;;;;;;;;;;5005614;28;20434;-76
2022/10/27 06:42:38;;;;;;;26.48;7.25;;;;;;;;;;5009906;28;20037;-76
2022/10/27 06:45:04;;;;;;;29.58;7.70;;;;;;;;;;5004483;28;20109;-76
2022/10/27 06:47:31;;;;;;;39.75;8.85;;;;;;;;;;5012161;28;20041;-76
2022/10/27 06:49:57;;;;;;;36.10;7.95;;;;;;;;;;5010527;28;20556;-76
2022/10/27 06:52:23;;;;;;;33.42;8.88;;;;;;;;;;5004469;28;20079;-76
2022/10/27 06:54:49;;;;;;;39.97;9.48;;;;;;;;;;5004049;28;20129;-76
2022/10/27 06:57:15;;;;;;;28.05;8.10;;;;;;;;;;5005848;28;20034;-76
2022/10/27 06:59:41;;;;;;;42.33;8.30;;;;;;;;;;5006709;28;20038;-75
2022/10/27 07:02:09;;;;;;;30.98;8.60;;;;;;;;;;5008483;28;20053;-76
2022/10/27 07:04:35;;;;;;;43.50;12.00;;;;;;;;;;5014965;28;20041;-76
2022/10/27 07:07:01;;;;;;;31.30;9.23;;;;;;;;;;5017772;28;20029;-76
2022/10/27 07:09:27;;;;;;;34.75;8.65;;;;;;;;;;5008570;28;20076;-76
2022/10/27 07:11:53;;;;;;;21.10;8.32;;;;;;;;;;5016976;28;20107;-76
2022/10/27 07:14:19;;;;;;;38.03;8.98;;;;;;;;;;5007976;28;20048;-75
2022/10/27 07:16:45;;;;;;;23.38;7.50;;;;;;;;;;5010608;28;20477;-76
2022/10/27 07:19:11;;;;;;;29.10;7.97;;;;;;;;;;5009900;28;20029;-76
2022/10/27 07:21:37;;;;;;;30.73;7.85;;;;;;;;;;5005770;28;20492;-76
2022/10/27 07:24:03;;;;;;;30.17;8.05;;;;;;;;;;5016169;28;20500;-76
2022/10/27 07:26:29;;;;;;;22.85;7.57;;;;;;;;;;4996505;28;20124;-76
2022/10/27 07:28:55;;;;;;;25.33;8.10;;;;;;;;;;5003619;28;20520;-76
2022/10/27 07:31:21;;;;;;;27.98;8.27;;;;;;;;;;5005159;28;20111;-76
2022/10/27 07:33:47;;;;;;;24.40;7.97;;;;;;;;;;5007714;28;20029;-76
2022/10/27 07:36:13;;;;;;;37.92;8.13;;;;;;;;;;5000248;28;20065;-76
2022/10/27 07:38:39;;;;;;;31.80;8.10;;;;;;;;;;5005812;28;20062;-76
2022/10/27 07:41:05;;;;;;;24.33;6.75;;;;;;;;;;5006169;28;20042;-76
2022/10/27 07:43:31;;;;;;;26.88;7.47;;;;;;;;;;5006643;28;20032;-76
2022/10/27 07:45:57;;;;;;;23.52;7.35;;;;;;;;;;5009640;28;20132;-76
2022/10/27 07:48:23;;;;;;;29.67;7.40;;;;;;;;;;5021034;28;20032;-76
2022/10/27 07:50:50;;;;;;;23.92;8.18;;;;;;;;;;5007608;28;20053;-77
2022/10/27 07:53:17;;;;;;;19.08;6.38;;;;;;;;;;5009463;28;20112;-76
2022/10/27 07:55:43;;;;;;;26.25;7.07;;;;;;;;;;5003913;28;20030;-76
2022/10/27 07:58:10;;;;;;;19.75;6.47;;;;;;;;;;5008292;28;20038;-76
2022/10/27 08:00:37;;;;;;;26.23;6.60;;;;;;;;;;5008763;28;20038;-76
2022/10/27 08:03:04;;;;;;;23.30;7.32;;;;;;;;;;5014138;28;20038;-75
2022/10/27 08:05:32;;;;;;;17.33;6.50;;;;;;;;;;5001960;28;20033;-76
2022/10/27 08:07:58;;;;;;;22.17;7.55;;;;;;;;;;5009217;28;20022;-76
2022/10/27 08:10:24;;;;;;;23.63;7.75;;;;;;;;;;5008303;28;20528;-76
2022/10/27 08:12:50;;;;;;;24.38;7.00;;;;;;;;;;5006836;28;20033;-76
2022/10/27 08:15:16;;;;;;;18.15;6.22;;;;;;;;;;5021380;28;20048;-77
2022/10/27 08:17:42;;;;;;;20.58;6.47;;;;;;;;;;5007401;28;20037;-76
2022/10/27 08:20:09;;;;;;;20.58;6.13;;;;;;;;;;5007328;28;20038;-76
2022/10/27 08:22:35;;;;;;;17.60;4.95;;;;;;;;;;5000920;28;20030;-76
2022/10/27 08:25:01;;;;;;;16.73;5.28;;;;;;;;;;5009817;28;20181;-75
2022/10/27 08:27:27;;;;;;;14.63;5.05;;;;;;;;;;5006954;28;20509;-76
2022/10/27 08:29:53;;;;;;;22.50;5.97;;;;;;;;;;5007188;28;20046;-76
2022/10/27 08:32:19;;;;;;;22.90;6.93;;;;;;;;;;5009183;28;20037;-76
2022/10/27 08:34:45;;;;;;;28.98;7.25;;;;;;;;;;5002402;28;20045;-76
2022/10/27 08:37:11;;;;;;;23.40;6.63;;;;;;;;;;5007890;28;20033;-76
2022/10/27 08:39:37;;;;;;;16.77;4.10;;;;;;;;;;5011120;28;20041;-76
2022/10/27 08:42:11;;;;;;;15.68;3.80;;;;;;;;;;5003541;28;20625;-76
2022/10/27 08:44:46;;;;;;;20.98;4.47;;;;;;;;;;5002696;28;20679;-76
2022/10/27 08:47:17;;;;;;;15.05;4.30;;;;;;;;;;5015414;28;20034;-76
2022/10/27 08:50:09;;;;;;;19.88;4.25;;;;;;;;;;5013309;28;20042;-76
2022/10/27 08:52:38;;;;;;;16.48;3.85;;;;;;;;;;5005110;28;20037;-76
2022/10/27 08:55:17;;;;;;;19.48;4.78;;;;;;;;;;5011941;28;20699;-76
2022/10/27 08:57:48;;;;;;;17.92;5.45;;;;;;;;;;5015029;28;20014;-76
2022/10/27 09:00:14;;;;;;;13.82;5.18;;;;;;;;;;5014198;28;20136;-76
2022/10/27 09:02:40;;;;;;;21.73;5.40;;;;;;;;;;5008870;28;20064;-76
2022/10/27 09:05:07;;;;;;;17.92;5.72;;;;;;;;;;5017009;28;20069;-76
2022/10/27 09:07:39;;;;;;;22.23;5.65;;;;;;;;;;5007429;28;20366;-76
2022/10/27 09:10:11;;;;;;;25.15;5.93;;;;;;;;;;5009212;28;20133;-76
2022/10/27 09:12:37;;;;;;;;;;;;;;;;;;5009171;28;20027;-76
2022/10/27 09:15:03;;;;;;;18.88;5.25;;;;;;;;;;5017088;28;20230;-76
2022/10/27 09:17:32;;;;;;;21.88;6.63;;;;;;;;;;5005013;28;20034;-76
2022/10/27 09:20:01;;;;;;;19.70;5.78;;;;;;;;;;5010207;28;20037;-76
2022/10/27 09:22:28;;;;;;;22.73;5.78;;;;;;;;;;5014134;28;20479;-76
2022/10/27 09:24:57;;;;;;;16.65;5.28;;;;;;;;;;5005784;28;20049;-77
2022/10/27 09:27:24;;;;;;;18.70;4.47;;;;;;;;;;5006396;28;20038;-76
2022/10/27 09:29:50;;;;;;;17.02;4.28;;;;;;;;;;5016224;28;20042;-76
2022/10/27 09:32:26;;;;;;;15.85;4.03;;;;;;;;;;5006778;28;20110;-76
2022/10/27 09:35:00;;;;;;;13.38;3.35;;;;;;;;;;5000022;28;20057;-76
2022/10/27 09:37:26;;;;;;;13.63;4.45;;;;;;;;;;5010834;28;20374;-76
2022/10/27 09:39:53;;;;;;;18.10;4.50;;;;;;;;;;5005370;28;20053;-76
2022/10/27 09:42:19;;;;;;;14.32;3.72;;;;;;;;;;5010885;28;20041;-76
2022/10/27 09:44:59;;;;;;;20.27;3.85;;;;;;;;;;5006903;28;20038;-76
2022/10/27 09:47:28;;;;;;;16.20;4.05;;;;;;;;;;5007289;28;21162;-76
2022/10/27 09:49:55;;;;;;;13.02;3.55;;;;;;;;;;5010111;28;20038;-76
2022/10/27 09:52:29;;;;;;;18.80;3.80;;;;;;;;;;5011715;28;20041;-76
2022/10/27 09:54:56;;;;;;;15.18;3.80;;;;;;;;;;5008928;28;20065;-76
2022/10/27 09:57:26;;;;;;;15.30;3.28;;;;;;;;;;5010269;28;20465;-76
2022/10/27 09:59:58;;;;;;;16.15;3.20;;;;;;;;;;5014727;28;20741;-76
2022/10/27 10:02:26;;;;;;;16.83;3.90;;;;;;;;;;5009990;28;20033;-76
2022/10/27 10:04:52;;;;;;;13.57;2.88;;;;;;;;;;5012093;28;20034;-76
2022/10/27 10:07:29;;;;;;;21.63;3.05;;;;;;;;;;5006061;28;20466;-75
2022/10/27 10:10:15;;;;;;;13.82;2.53;;;;;;;;;;5010822;28;20049;-76
2022/10/27 10:12:41;;;;;;;12.10;2.92;;;;;;;;;;4992223;28;20052;-76
2022/10/27 10:15:07;;;;;;;16.20;3.00;;;;;;;;;;5005885;28;20061;-76
2022/10/27 10:17:33;;;;;;;9.80;2.03;;;;;;;;;;5004370;28;20056;-76
2022/10/27 10:20:02;;;;;;;9.18;2.35;;;;;;;;;;5004213;28;20058;-77
2022/10/27 10:22:32;;;;;;;10.68;2.25;;;;;;;;;;5005400;28;20080;-76
2022/10/27 10:25:00;;;;;;;13.15;2.72;;;;;;;;;;5003451;28;20037;-76
2022/10/27 10:27:27;;;;;;;20.23;3.17;;;;;;;;;;4998855;28;20101;-76
2022/10/27 10:29:54;;;;;;;23.25;3.75;;;;;;;;;;5005929;28;20037;-76
2022/10/27 10:32:43;;;;;;;18.75;3.60;;;;;;;;;;5009827;28;20026;-76
2022/10/27 10:35:28;;;;;;;11.48;2.80;;;;;;;;;;4996857;28;20062;-76
2022/10/27 10:37:54;;;;;;;10.98;2.63;;;;;;;;;;5005102;28;20041;-76
2022/10/27 10:40:25;;;;;;;11.10;3.17;;;;;;;;;;5009425;28;20042;-76
2022/10/27 10:43:00;;;;;;;13.95;3.25;;;;;;;;;;5009411;28;20837;-76
2022/10/27 10:45:29;;;;;;;11.88;2.47;;;;;;;;;;5004470;28;20076;-76
2022/10/27 10:48:18;;;;;;;13.57;2.67;;;;;;;;;;5009441;28;20026;-77
2022/10/27 10:50:45;;;;;;;16.58;2.88;;;;;;;;;;5001337;28;20046;-77
2022/10/27 10:53:19;;;;;;;15.27;3.15;;;;;;;;;;5012698;28;20108;-76
2022/10/27 10:55:46;;;;;;;10.38;2.85;;;;;;;;;;5010845;28;20062;-77
2022/10/27 10:58:15;;;;;;;11.00;2.30;;;;;;;;;;5003100;28;20034;-76
2022/10/27 11:00:54;;;;;;;16.00;2.60;;;;;;;;;;5011643;28;20033;-76
2022/10/27 11:03:22;;;;;;;8.48;2.20;;;;;;;;;;5012080;28;20038;-76
2022/10/27 11:05:52;;;;;;;12.18;2.75;;;;;;;;;;5006830;28;20116;-76
2022/10/27 11:08:26;;;;;;;15.90;2.65;;;;;;;;;;5004757;28;20037;-76
2022/10/27 11:10:55;;;;;;;12.02;2.97;;;;;;;;;;5008117;28;20081;-76
2022/10/27 11:13:27;;;;;;;16.02;3.22;;;;;;;;;;5007841;28;20025;-76
2022/10/27 11:16:00;;;;;;;15.90;2.78;;;;;;;;;;5020347;28;20072;-76
2022/10/27 11:18:26;;;;;;;14.48;2.72;;;;;;;;;;5012864;28;20026;-76
2022/10/27 11:20:56;;;;;;;11.57;2.55;;;;;;;;;;5010723;28;20065;-76
2022/10/27 11:23:27;;;;;;;12.82;2.90;;;;;;;;;;5015286;28;20025;-76
2022/10/27 11:25:55;;;;;;;13.47;2.73;;;;;;;;;;5008632;28;20064;-76
2022/10/27 11:28:24;;;;;;;11.68;2.92;;;;;;;;;;5021185;28;20025;-76
2022/10/27 11:30:58;;;;;;;17.33;3.42;;;;;;;;;;5011985;28;20034;-76
2022/10/27 11:33:40;;;;;;;14.20;3.00;;;;;;;;;;5014762;28;20021;-76
2022/10/27 11:36:14;;;;;;;13.90;2.80;;;;;;;;;;5007607;28;20105;-76
2022/10/27 11:38:48;;;;;;;10.82;2.75;;;;;;;;;;4997969;28;20030;-76
2022/10/27 11:41:29;;;;;;;16.05;2.67;;;;;;;;;;5009538;28;20040;-76
2022/10/27 11:44:06;;;;;;;14.60;2.60;;;;;;;;;;5014346;28;20033;-76
2022/10/27 11:46:35;;;;;;;18.05;3.80;;;;;;;;;;5002929;28;20480;-76
2022/10/27 11:49:01;;;;;;;15.70;3.95;;;;;;;;;;5008522;28;20101;-76
2022/10/27 11:51:30;;;;;;;15.10;4.00;;;;;;;;;;5015039;28;20112;-76
2022/10/27 11:53:56;;;;;;;14.38;3.17;;;;;;;;;;5006036;28;20033;-76
2022/10/27 11:56:41;;;;;;;17.67;3.30;;;;;;;;;;5002823;28;20037;-76
2022/10/27 11:59:07;;;;;;;17.80;2.97;;;;;;;;;;5004634;28;20056;-76
2022/10/27 12:01:46;;;;;;;17.65;3.45;;;;;;;;;;5006957;28;20041;-76
2022/10/27 12:04:12;;;;;;;13.73;3.08;;;;;;;;;;5005815;28;20382;-76
2022/10/27 12:06:48;;;;;;;18.92;3.60;;;;;;;;;;5013445;28;20037;-76
2022/10/27 12:09:46;;;;;;;18.65;3.35;;;;;;;;;;5005404;28;20040;-76
2022/10/27 12:12:33;;;;;;;13.18;3.00;;;;;;;;;;4970642;28;20042;-76
2022/10/27 12:15:05;;;;;;;13.43;3.10;;;;;;;;;;5011562;28;20447;-76
2022/10/27 12:17:50;;;;;;;15.50;3.33;;;;;;;;;;5008188;28;20038;-76
2022/10/27 12:20:18;;;;;;;17.10;2.70;;;;;;;;;;5007117;28;20531;-76
2022/10/27 12:23:00;;;;;;;15.60;2.53;;;;;;;;;;5003507;28;20033;-77
2022/10/27 12:25:30;;;;;;;17.92;2.65;;;;;;;;;;5011349;28;20039;-76
2022/10/27 12:27:57;;;;;;;12.98;2.85;;;;;;;;;;5009048;28;20061;-76
2022/10/27 12:30:24;;;;;;;21.50;3.50;;;;;;;;;;5009357;28;20046;-76
2022/10/27 12:33:08;;;;;;;15.32;2.63;;;;;;;;;;5013143;28;20030;-76
2022/10/27 12:35:34;;;;;;;15.57;3.33;;;;;;;;;;5009319;28;20053;-76
2022/10/27 12:38:06;;;;;;;12.48;2.50;;;;;;;;;;5009040;28;20097;-76
2022/10/27 12:40:32;;;;;;;;;;;;;;;;;;5008881;28;20038;-76
2022/10/27 12:43:08;;;;;;;12.90;3.65;;;;;;;;;;5010187;28;19924;-76
2022/10/27 12:46:07;;;;;;;10.15;2.28;;;;;;;;;;5000824;28;20042;-76
2022/10/27 12:48:38;;;;;;;14.02;2.53;;;;;;;;;;4962217;28;20374;-76
2022/10/27 12:51:04;;;;;;;14.30;3.13;;;;;;;;;;5006423;28;20038;-76
2022/10/27 12:53:36;;;;;;;12.50;2.58;;;;;;;;;;5012243;28;20026;-76
2022/10/27 12:56:02;;;;;;;;;;;;;;;;;;5022065;28;20481;-76
2022/10/27 12:58:54;;;;;;;13.25;2.33;;;;;;;;;;5007709;28;19924;-76
2022/10/27 13:01:23;;;;;;;17.15;2.25;;;;;;;;;;5001983;28;20168;-76
2022/10/27 13:04:00;;;;;;;8.13;1.95;;;;;;;;;;5001021;28;20630;-76
2022/10/27 13:06:41;;;;;;;9.85;2.15;;;;;;;;;;5021599;28;20044;-76
2022/10/27 13:09:10;;;;;;;14.05;1.98;;;;;;;;;;5003531;28;20038;-75
2022/10/27 13:11:44;;;;;;;18.98;3.13;;;;;;;;;;5014462;28;20084;-76
2022/10/27 13:14:26;;;;;;;15.45;2.60;;;;;;;;;;5005722;28;20041;-76
2022/10/27 13:17:11;;;;;;;12.27;1.80;;;;;;;;;;5018374;28;20030;-76
2022/10/27 13:19:46;;;;;;;11.38;2.58;;;;;;;;;;5002011;28;20109;-76
2022/10/27 13:22:13;;;;;;;10.40;1.95;;;;;;;;;;5010181;28;20029;-76
2022/10/27 13:25:02;;;;;;;11.80;2.20;;;;;;;;;;5006229;28;20144;-76
2022/10/27 13:27:31;;;;;;;10.32;2.38;;;;;;;;;;5010034;28;20033;-76
2022/10/27 13:30:14;;;;;;;14.63;2.33;;;;;;;;;;5006819;28;20105;-76
2022/10/27 13:33:01;;;;;;;13.68;1.70;;;;;;;;;;5000907;28;20041;-76
2022/10/27 13:35:28;;;;;;;11.40;2.00;;;;;;;;;;5009819;28;20468;-76
2022/10/27 13:37:59;;;;;;;16.48;2.20;;;;;;;;;;5007580;28;20036;-76
2022/10/27 13:40:29;;;;;;;8.88;2.33;;;;;;;;;;5013584;28;20034;-76
2022/10/27 13:43:17;;;;;;;9.95;2.05;;;;;;;;;;5005261;28;20040;-76
2022/10/27 13:45:50;;;;;;;15.45;2.38;;;;;;;;;;5004419;28;20141;-76
2022/10/27 13:48:16;;;;;;;12.13;2.95;;;;;;;;;;5002113;28;20069;-76
2022/10/27 13:50:44;;;;;;;11.38;1.98;;;;;;;;;;5011626;28;20061;-76
2022/10/27 13:53:19;;;;;;;8.90;2.13;;;;;;;;;;5004653;28;20040;-76
2022/10/27 13:55:52;;;;;;;12.55;2.33;;;;;;;;;;5006397;28;20378;-76
2022/10/27 13:58:18;;;;;;;9.55;2.20;;;;;;;;;;4999914;28;20033;-76
2022/10/27 14:00:47;;;;;;;10.65;2.45;;;;;;;;;;5012035;28;20113;-76
2022/10/27 14:03:32;;;;;;;13.15;2.58;;;;;;;;;;5008941;28;20029;-76
2022/10/27 14:05:58;;;;;;;15.73;2.40;;;;;;;;;;5009932;28;20038;-76
2022/10/27 14:08:27;;;;;;;8.18;1.80;;;;;;;;;;5003855;28;20044;-76
2022/10/27 14:10:55;;;;;;;9.15;2.17;;;;;;;;;;5009264;28;20037;-76
2022/10/27 14:13:23;;;;;;;16.60;1.98;;;;;;;;;;5002813;28;20692;-76
2022/10/27 14:15:50;;;;;;;15.52;2.40;;;;;;;;;;5009523;28;20036;-76
2022/10/27 14:18:35;;;;;;;5.75;1.30;;;;;;;;;;5009881;28;20026;-76
2022/10/27 14:21:13;;;;;;;6.97;1.33;;;;;;;;;;5002912;28;20092;-76
2022/10/27 14:23:39;;;;;;;14.50;2.88;;;;;;;;;;5013651;28;20120;-77
2022/10/27 14:26:41;;;;;;;10.23;1.58;;;;;;;;;;5007460;28;20073;-76
2022/10/27 14:29:21;;;;;;;11.97;1.97;;;;;;;;;;4930670;29;20047;-77
2022/10/27 14:31:47;;;;;;;9.75;2.15;;;;;;;;;;4999377;28;20443;-76
2022/10/27 14:34:15;;;;;;;10.63;2.83;;;;;;;;;;5011206;28;20054;-76
2022/10/27 14:36:41;;;;;;;10.07;2.20;;;;;;;;;;5011392;28;20404;-77
2022/10/27 14:39:07;;;;;;;16.50;2.15;;;;;;;;;;5004033;28;20061;-76
2022/10/27 14:41:37;;;;;;;12.88;2.55;;;;;;;;;;5008750;28;20022;-76
2022/10/27 14:44:05;;;;;;;15.63;2.67;;;;;;;;;;5006874;28;20065;-76